sensor_id;sensor_type;location;lat;lon;timestamp;temperature;humidity
11091;DHT22;5599;52.210;21.046;2023-01-13T00:00:47;7.80;1.00
11091;DHT22;5599;52.210;21.046;2023-01-13T00:03:16;7.80;99.90
11091;DHT22;5599;52.210;21.046;2023-01-13T00:05:45;7.80;99.90
11091;DHT22;5599;52.210;21.046;2023-01-13T00:08:16;7.80;1.00
11091;DHT22;5599;52.210;21.046;2023-01-13T00:10:46;7.80;1.00
11091;DHT22;5599;52.210;21.046;2023-01-13T00:13:16;7.80;1.00
11091;DHT22;5599;52.210;21.046;2023-01-13T00:15:56;7.80;1.00
11091;DHT22;5599;52.210;21.046;2023-01-13T00:18:26;7.80;99.90
11091;DHT22;5599;52.210;21.046;2023-01-13T00:21:00;7.90;99.90
11091;DHT22;5599;52.210;21.046;2023-01-13T00:23:32;7.80;99.90
11091;DHT22;5599;52.210;21.046;2023-01-13T00:26:04;7.80;1.00
11091;DHT22;5599;52.210;21.046;2023-01-13T00:28:34;7.80;99.90
11091;DHT22;5599;52.210;21.046;2023-01-13T00:31:05;7.80;38.70
11091;DHT22;5599;52.210;21.046;2023-01-13T00:33:36;7.70;1.00
11091;DHT22;5599;52.210;21.046;2023-01-13T00:36:07;7.70;1.00
11091;DHT22;5599;52.210;21.046;2023-01-13T00:38:39;7.70;99.90
11091;DHT22;5599;52.210;21.046;2023-01-13T00:41:10;7.70;1.00
11091;DHT22;5599;52.210;21.046;2023-01-13T00:43:40;7.70;69.90
11091;DHT22;5599;52.210;21.046;2023-01-13T00:46:10;7.70;1.00
11091;DHT22;5599;52.210;21.046;2023-01-13T00:48:40;7.60;1.00
11091;DHT22;5599;52.210;21.046;2023-01-13T00:51:11;7.70;1.00
11091;DHT22;5599;52.210;21.046;2023-01-13T00:53:44;7.60;13.10
11091;DHT22;5599;52.210;21.046;2023-01-13T00:56:15;7.70;1.00
11091;DHT22;5599;52.210;21.046;2023-01-13T00:58:56;7.60;97.20
11091;DHT22;5599;52.210;21.046;2023-01-13T01:01:26;7.50;99.90
11091;DHT22;5599;52.210;21.046;2023-01-13T01:03:56;7.60;99.90
11091;DHT22;5599;52.210;21.046;2023-01-13T01:06:26;7.60;60.90
11091;DHT22;5599;52.210;21.046;2023-01-13T01:08:57;7.60;1.00
11091;DHT22;5599;52.210;21.046;2023-01-13T01:11:29;7.60;99.90
11091;DHT22;5599;52.210;21.046;2023-01-13T01:14:00;7.70;99.90
11091;DHT22;5599;52.210;21.046;2023-01-13T01:16:31;7.70;1.00
11091;DHT22;5599;52.210;21.046;2023-01-13T01:19:01;7.70;99.90
11091;DHT22;5599;52.210;21.046;2023-01-13T01:21:31;7.70;47.20
11091;DHT22;5599;52.210;21.046;2023-01-13T01:24:03;7.60;14.30
11091;DHT22;5599;52.210;21.046;2023-01-13T01:26:32;7.60;6.10
11091;DHT22;5599;52.210;21.046;2023-01-13T01:29:01;7.60;99.90
11091;DHT22;5599;52.210;21.046;2023-01-13T01:31:31;7.60;99.90
11091;DHT22;5599;52.210;21.046;2023-01-13T01:34:01;7.50;99.90
11091;DHT22;5599;52.210;21.046;2023-01-13T01:36:31;7.60;99.90
11091;DHT22;5599;52.210;21.046;2023-01-13T01:39:03;7.60;99.90
11091;DHT22;5599;52.210;21.046;2023-01-13T01:41:34;7.60;1.00
11091;DHT22;5599;52.210;21.046;2023-01-13T01:44:07;7.60;1.00
11091;DHT22;5599;52.210;21.046;2023-01-13T01:46:55;7.60;33.30
11091;DHT22;5599;52.210;21.046;2023-01-13T01:49:28;7.60;99.90
11091;DHT22;5599;52.210;21.046;2023-01-13T01:52:02;7.50;1.00
11091;DHT22;5599;52.210;21.046;2023-01-13T01:54:38;7.60;81.50
11091;DHT22;5599;52.210;21.046;2023-01-13T01:57:10;7.60;99.90
11091;DHT22;5599;52.210;21.046;2023-01-13T01:59:41;7.60;99.90
11091;DHT22;5599;52.210;21.046;2023-01-13T02:02:11;7.50;99.90
11091;DHT22;5599;52.210;21.046;2023-01-13T02:04:46;7.50;1.00
11091;DHT22;5599;52.210;21.046;2023-01-13T02:07:18;7.50;1.00
11091;DHT22;5599;52.210;21.046;2023-01-13T02:09:51;7.50;1.00
11091;DHT22;5599;52.210;21.046;2023-01-13T02:12:21;7.40;99.90
11091;DHT22;5599;52.210;21.046;2023-01-13T02:15:02;7.40;99.90
11091;DHT22;5599;52.210;21.046;2023-01-13T02:17:44;7.40;99.90
11091;DHT22;5599;52.210;21.046;2023-01-13T02:20:48;7.40;99.90
11091;DHT22;5599;52.210;21.046;2023-01-13T02:23:51;7.50;99.90
11091;DHT22;5599;52.210;21.046;2023-01-13T02:30:16;7.50;40.60
11091;DHT22;5599;52.210;21.046;2023-01-13T02:33:24;7.40;99.90
11091;DHT22;5599;52.210;21.046;2023-01-13T02:36:03;7.50;99.90
11091;DHT22;5599;52.210;21.046;2023-01-13T02:38:38;7.40;68.70
11091;DHT22;5599;52.210;21.046;2023-01-13T02:41:14;7.40;99.90
11091;DHT22;5599;52.210;21.046;2023-01-13T02:44:05;7.50;1.00
11091;DHT22;5599;52.210;21.046;2023-01-13T02:46:44;7.50;1.00
11091;DHT22;5599;52.210;21.046;2023-01-13T02:49:22;7.50;1.00
11091;DHT22;5599;52.210;21.046;2023-01-13T02:51:58;7.50;1.00
11091;DHT22;5599;52.210;21.046;2023-01-13T02:54:29;7.60;1.00
11091;DHT22;5599;52.210;21.046;2023-01-13T02:57:02;7.50;99.90
11091;DHT22;5599;52.210;21.046;2023-01-13T02:59:35;7.50;1.00
11091;DHT22;5599;52.210;21.046;2023-01-13T03:02:11;7.50;1.00
11091;DHT22;5599;52.210;21.046;2023-01-13T03:04:54;7.50;1.00
11091;DHT22;5599;52.210;21.046;2023-01-13T03:07:43;7.60;99.90
11091;DHT22;5599;52.210;21.046;2023-01-13T03:13:28;7.40;1.00
11091;DHT22;5599;52.210;21.046;2023-01-13T03:16:08;7.40;1.00
11091;DHT22;5599;52.210;21.046;2023-01-13T03:18:49;7.40;99.90
11091;DHT22;5599;52.210;21.046;2023-01-13T03:21:24;7.40;1.00
11091;DHT22;5599;52.210;21.046;2023-01-13T03:23:59;7.40;1.00
11091;DHT22;5599;52.210;21.046;2023-01-13T03:26:36;7.40;1.00
11091;DHT22;5599;52.210;21.046;2023-01-13T03:29:12;7.50;1.00
11091;DHT22;5599;52.210;21.046;2023-01-13T03:31:46;7.50;1.00
11091;DHT22;5599;52.210;21.046;2023-01-13T03:34:21;7.50;1.00
11091;DHT22;5599;52.210;21.046;2023-01-13T03:36:54;7.50;1.00
11091;DHT22;5599;52.210;21.046;2023-01-13T03:39:30;7.50;1.00
11091;DHT22;5599;52.210;21.046;2023-01-13T03:42:02;7.50;1.00
11091;DHT22;5599;52.210;21.046;2023-01-13T03:44:37;7.50;1.00
11091;DHT22;5599;52.210;21.046;2023-01-13T03:47:15;7.50;1.00
11091;DHT22;5599;52.210;21.046;2023-01-13T03:49:53;7.60;99.90
11091;DHT22;5599;52.210;21.046;2023-01-13T03:52:27;7.50;1.00
11091;DHT22;5599;52.210;21.046;2023-01-13T03:55:02;7.40;1.00
11091;DHT22;5599;52.210;21.046;2023-01-13T03:57:36;7.40;36.50
11091;DHT22;5599;52.210;21.046;2023-01-13T04:00:10;7.40;97.80
11091;DHT22;5599;52.210;21.046;2023-01-13T04:02:48;7.50;1.00
11091;DHT22;5599;52.210;21.046;2023-01-13T04:05:21;7.50;10.20
11091;DHT22;5599;52.210;21.046;2023-01-13T04:07:57;7.40;8.70
11091;DHT22;5599;52.210;21.046;2023-01-13T04:10:33;7.40;99.90
11091;DHT22;5599;52.210;21.046;2023-01-13T04:13:06;7.40;99.90
11091;DHT22;5599;52.210;21.046;2023-01-13T04:15:39;7.40;99.90
11091;DHT22;5599;52.210;21.046;2023-01-13T04:18:12;7.40;99.90
11091;DHT22;5599;52.210;21.046;2023-01-13T04:20:46;7.30;99.90
11091;DHT22;5599;52.210;21.046;2023-01-13T04:23:17;7.30;99.90
11091;DHT22;5599;52.210;21.046;2023-01-13T04:25:48;7.30;99.90
11091;DHT22;5599;52.210;21.046;2023-01-13T04:28:18;7.30;99.90
11091;DHT22;5599;52.210;21.046;2023-01-13T04:30:48;7.30;99.90
11091;DHT22;5599;52.210;21.046;2023-01-13T04:33:18;7.30;99.90
11091;DHT22;5599;52.210;21.046;2023-01-13T04:35:49;7.30;99.90
11091;DHT22;5599;52.210;21.046;2023-01-13T04:38:21;7.30;99.90
11091;DHT22;5599;52.210;21.046;2023-01-13T04:40:53;7.30;99.90
11091;DHT22;5599;52.210;21.046;2023-01-13T04:43:23;7.30;99.90
11091;DHT22;5599;52.210;21.046;2023-01-13T04:45:53;7.30;99.90
11091;DHT22;5599;52.210;21.046;2023-01-13T04:48:23;7.40;99.90
11091;DHT22;5599;52.210;21.046;2023-01-13T04:50:54;7.30;99.90
11091;DHT22;5599;52.210;21.046;2023-01-13T04:53:23;7.40;99.90
11091;DHT22;5599;52.210;21.046;2023-01-13T04:55:53;7.40;99.90
11091;DHT22;5599;52.210;21.046;2023-01-13T04:58:23;7.40;99.90
11091;DHT22;5599;52.210;21.046;2023-01-13T05:00:52;7.30;99.90
11091;DHT22;5599;52.210;21.046;2023-01-13T05:03:22;7.30;99.90
11091;DHT22;5599;52.210;21.046;2023-01-13T05:05:55;7.30;99.90
11091;DHT22;5599;52.210;21.046;2023-01-13T05:08:24;7.30;99.90
11091;DHT22;5599;52.210;21.046;2023-01-13T05:10:53;7.30;99.90
11091;DHT22;5599;52.210;21.046;2023-01-13T05:13:23;7.40;99.90
11091;DHT22;5599;52.210;21.046;2023-01-13T05:16:11;7.30;99.90
11091;DHT22;5599;52.210;21.046;2023-01-13T05:18:58;7.40;99.90
11091;DHT22;5599;52.210;21.046;2023-01-13T05:21:29;7.40;99.90
11091;DHT22;5599;52.210;21.046;2023-01-13T05:24:16;7.40;99.90
11091;DHT22;5599;52.210;21.046;2023-01-13T05:27:04;7.50;99.90
11091;DHT22;5599;52.210;21.046;2023-01-13T05:29:33;7.30;99.90
11091;DHT22;5599;52.210;21.046;2023-01-13T05:32:03;7.30;99.90
11091;DHT22;5599;52.210;21.046;2023-01-13T05:34:35;7.30;1.00
11091;DHT22;5599;52.210;21.046;2023-01-13T05:37:06;7.30;1.00
11091;DHT22;5599;52.210;21.046;2023-01-13T05:39:37;7.40;1.00
11091;DHT22;5599;52.210;21.046;2023-01-13T05:42:20;7.40;1.00
11091;DHT22;5599;52.210;21.046;2023-01-13T05:45:05;7.30;1.00
11091;DHT22;5599;52.210;21.046;2023-01-13T05:47:34;7.30;1.00
11091;DHT22;5599;52.210;21.046;2023-01-13T05:50:05;7.30;1.00
11091;DHT22;5599;52.210;21.046;2023-01-13T05:52:36;7.30;1.00
11091;DHT22;5599;52.210;21.046;2023-01-13T05:55:06;7.30;1.00
11091;DHT22;5599;52.210;21.046;2023-01-13T05:57:36;7.20;1.00
11091;DHT22;5599;52.210;21.046;2023-01-13T06:00:07;7.30;1.00
11091;DHT22;5599;52.210;21.046;2023-01-13T06:02:39;7.30;1.00
11091;DHT22;5599;52.210;21.046;2023-01-13T06:05:09;7.20;1.00
11091;DHT22;5599;52.210;21.046;2023-01-13T06:07:41;7.20;1.00
11091;DHT22;5599;52.210;21.046;2023-01-13T06:10:11;7.30;49.50
11091;DHT22;5599;52.210;21.046;2023-01-13T06:12:41;7.20;22.60
11091;DHT22;5599;52.210;21.046;2023-01-13T06:15:11;7.20;18.80
11091;DHT22;5599;52.210;21.046;2023-01-13T06:17:41;7.10;13.30
11091;DHT22;5599;52.210;21.046;2023-01-13T06:20:12;7.20;99.90
11091;DHT22;5599;52.210;21.046;2023-01-13T06:22:46;7.20;55.10
11091;DHT22;5599;52.210;21.046;2023-01-13T06:25:21;7.20;94.30
11091;DHT22;5599;52.210;21.046;2023-01-13T06:27:53;7.30;93.90
11091;DHT22;5599;52.210;21.046;2023-01-13T06:30:24;7.30;97.00
11091;DHT22;5599;52.210;21.046;2023-01-13T06:32:57;7.20;54.40
11091;DHT22;5599;52.210;21.046;2023-01-13T06:35:32;7.30;83.50
11091;DHT22;5599;52.210;21.046;2023-01-13T06:38:07;7.30;67.70
11091;DHT22;5599;52.210;21.046;2023-01-13T06:40:40;7.30;93.20
11091;DHT22;5599;52.210;21.046;2023-01-13T06:43:10;7.40;55.20
11091;DHT22;5599;52.210;21.046;2023-01-13T06:45:47;7.40;33.60
11091;DHT22;5599;52.210;21.046;2023-01-13T06:48:22;7.40;1.00
11091;DHT22;5599;52.210;21.046;2023-01-13T06:50:53;7.40;48.40
11091;DHT22;5599;52.210;21.046;2023-01-13T06:53:24;7.40;17.40
11091;DHT22;5599;52.210;21.046;2023-01-13T06:55:53;7.40;1.00
11091;DHT22;5599;52.210;21.046;2023-01-13T06:58:23;7.40;1.00
11091;DHT22;5599;52.210;21.046;2023-01-13T07:00:53;7.40;1.00
11091;DHT22;5599;52.210;21.046;2023-01-13T07:03:22;7.40;1.00
11091;DHT22;5599;52.210;21.046;2023-01-13T07:05:53;7.40;1.00
11091;DHT22;5599;52.210;21.046;2023-01-13T07:08:25;7.40;1.00
11091;DHT22;5599;52.210;21.046;2023-01-13T07:10:55;7.50;1.00
11091;DHT22;5599;52.210;21.046;2023-01-13T07:13:24;7.50;1.00
11091;DHT22;5599;52.210;21.046;2023-01-13T07:16:11;7.50;1.00
11091;DHT22;5599;52.210;21.046;2023-01-13T07:18:41;7.60;1.00
11091;DHT22;5599;52.210;21.046;2023-01-13T07:21:11;7.60;1.00
11091;DHT22;5599;52.210;21.046;2023-01-13T07:23:47;7.60;1.00
11091;DHT22;5599;52.210;21.046;2023-01-13T07:26:17;7.60;1.00
11091;DHT22;5599;52.210;21.046;2023-01-13T07:28:46;7.60;1.00
11091;DHT22;5599;52.210;21.046;2023-01-13T07:31:17;7.60;1.00
11091;DHT22;5599;52.210;21.046;2023-01-13T07:33:48;7.60;1.00
11091;DHT22;5599;52.210;21.046;2023-01-13T07:36:17;7.60;1.00
11091;DHT22;5599;52.210;21.046;2023-01-13T07:38:49;7.60;1.00
11091;DHT22;5599;52.210;21.046;2023-01-13T07:41:21;7.70;1.00
11091;DHT22;5599;52.210;21.046;2023-01-13T07:44:09;7.70;1.00
11091;DHT22;5599;52.210;21.046;2023-01-13T07:46:39;7.80;1.00
11091;DHT22;5599;52.210;21.046;2023-01-13T07:49:09;7.80;1.00
11091;DHT22;5599;52.210;21.046;2023-01-13T07:51:40;7.70;1.00
11091;DHT22;5599;52.210;21.046;2023-01-13T07:54:11;7.70;1.00
11091;DHT22;5599;52.210;21.046;2023-01-13T07:56:40;7.70;1.00
11091;DHT22;5599;52.210;21.046;2023-01-13T07:59:10;7.80;1.00
11091;DHT22;5599;52.210;21.046;2023-01-13T08:01:40;7.70;1.00
11091;DHT22;5599;52.210;21.046;2023-01-13T08:04:09;7.80;1.00
11091;DHT22;5599;52.210;21.046;2023-01-13T08:06:39;7.80;1.00
11091;DHT22;5599;52.210;21.046;2023-01-13T08:09:10;7.80;1.00
11091;DHT22;5599;52.210;21.046;2023-01-13T08:11:39;7.90;1.00
11091;DHT22;5599;52.210;21.046;2023-01-13T08:14:09;7.90;1.00
11091;DHT22;5599;52.210;21.046;2023-01-13T08:16:39;8.00;1.00
11091;DHT22;5599;52.210;21.046;2023-01-13T08:19:08;8.00;1.00
11091;DHT22;5599;52.210;21.046;2023-01-13T08:21:38;8.00;1.00
11091;DHT22;5599;52.210;21.046;2023-01-13T08:24:10;8.00;1.00
11091;DHT22;5599;52.210;21.046;2023-01-13T08:26:40;8.00;1.00
11091;DHT22;5599;52.210;21.046;2023-01-13T08:29:10;8.10;1.00
11091;DHT22;5599;52.210;21.046;2023-01-13T08:31:41;8.10;1.00
11091;DHT22;5599;52.210;21.046;2023-01-13T08:34:11;8.10;1.00
11091;DHT22;5599;52.210;21.046;2023-01-13T08:36:41;8.10;1.00
11091;DHT22;5599;52.210;21.046;2023-01-13T08:39:12;8.00;1.00
11091;DHT22;5599;52.210;21.046;2023-01-13T08:41:43;8.10;1.00
11091;DHT22;5599;52.210;21.046;2023-01-13T08:44:26;8.10;1.00
11091;DHT22;5599;52.210;21.046;2023-01-13T08:46:56;8.10;1.00
11091;DHT22;5599;52.210;21.046;2023-01-13T08:49:26;8.20;1.00
11091;DHT22;5599;52.210;21.046;2023-01-13T08:51:56;8.20;1.00
11091;DHT22;5599;52.210;21.046;2023-01-13T08:54:27;8.20;1.00
11091;DHT22;5599;52.210;21.046;2023-01-13T08:56:58;8.30;1.00
11091;DHT22;5599;52.210;21.046;2023-01-13T08:59:30;8.30;1.00
11091;DHT22;5599;52.210;21.046;2023-01-13T09:02:00;8.30;1.00
11091;DHT22;5599;52.210;21.046;2023-01-13T09:04:31;8.30;1.00
11091;DHT22;5599;52.210;21.046;2023-01-13T09:07:01;8.30;1.00
11091;DHT22;5599;52.210;21.046;2023-01-13T09:09:32;8.40;99.90
11091;DHT22;5599;52.210;21.046;2023-01-13T09:12:02;8.30;99.90
11091;DHT22;5599;52.210;21.046;2023-01-13T09:14:50;8.40;99.90
11091;DHT22;5599;52.210;21.046;2023-01-13T09:17:20;8.30;99.90
11091;DHT22;5599;52.210;21.046;2023-01-13T09:19:51;8.40;99.90
11091;DHT22;5599;52.210;21.046;2023-01-13T09:22:21;8.40;99.90
11091;DHT22;5599;52.210;21.046;2023-01-13T09:24:55;8.30;99.90
11091;DHT22;5599;52.210;21.046;2023-01-13T09:27:25;8.40;99.90
11091;DHT22;5599;52.210;21.046;2023-01-13T09:29:55;8.40;99.90
11091;DHT22;5599;52.210;21.046;2023-01-13T09:32:25;8.40;99.90
11091;DHT22;5599;52.210;21.046;2023-01-13T09:34:54;8.50;99.90
11091;DHT22;5599;52.210;21.046;2023-01-13T09:37:31;8.50;99.90
11091;DHT22;5599;52.210;21.046;2023-01-13T09:40:05;8.50;99.90
11091;DHT22;5599;52.210;21.046;2023-01-13T09:42:44;8.60;99.90
11091;DHT22;5599;52.210;21.046;2023-01-13T09:45:36;8.60;1.00
11091;DHT22;5599;52.210;21.046;2023-01-13T09:48:14;8.60;1.00
11091;DHT22;5599;52.210;21.046;2023-01-13T09:50:54;8.60;99.90
11091;DHT22;5599;52.210;21.046;2023-01-13T09:53:29;8.70;1.00
11091;DHT22;5599;52.210;21.046;2023-01-13T09:56:02;8.80;1.00
11091;DHT22;5599;52.210;21.046;2023-01-13T09:58:32;8.90;99.90
11091;DHT22;5599;52.210;21.046;2023-01-13T10:01:23;8.90;99.90
11091;DHT22;5599;52.210;21.046;2023-01-13T10:03:55;8.90;1.00
11091;DHT22;5599;52.210;21.046;2023-01-13T10:06:32;8.90;1.00
11091;DHT22;5599;52.210;21.046;2023-01-13T10:09:04;8.90;1.00
11091;DHT22;5599;52.210;21.046;2023-01-13T10:11:38;8.90;1.00
11091;DHT22;5599;52.210;21.046;2023-01-13T10:14:41;8.90;13.60
11091;DHT22;5599;52.210;21.046;2023-01-13T10:17:20;9.00;1.00
11091;DHT22;5599;52.210;21.046;2023-01-13T10:19:59;9.00;1.00
11091;DHT22;5599;52.210;21.046;2023-01-13T10:22:46;9.00;99.90
11091;DHT22;5599;52.210;21.046;2023-01-13T10:25:25;9.00;1.00
11091;DHT22;5599;52.210;21.046;2023-01-13T10:28:02;9.10;1.00
11091;DHT22;5599;52.210;21.046;2023-01-13T10:30:37;9.10;1.00
11091;DHT22;5599;52.210;21.046;2023-01-13T10:33:12;9.10;1.00
11091;DHT22;5599;52.210;21.046;2023-01-13T10:35:59;9.20;99.90
11091;DHT22;5599;52.210;21.046;2023-01-13T10:38:35;9.20;1.00
11091;DHT22;5599;52.210;21.046;2023-01-13T10:41:16;9.20;1.00
11091;DHT22;5599;52.210;21.046;2023-01-13T10:44:00;9.20;1.00
11091;DHT22;5599;52.210;21.046;2023-01-13T10:46:32;9.20;79.00
11091;DHT22;5599;52.210;21.046;2023-01-13T10:49:19;9.20;1.00
11091;DHT22;5599;52.210;21.046;2023-01-13T10:51:52;9.20;33.80
11091;DHT22;5599;52.210;21.046;2023-01-13T10:54:24;9.20;1.00
11091;DHT22;5599;52.210;21.046;2023-01-13T10:57:16;9.30;1.00
11091;DHT22;5599;52.210;21.046;2023-01-13T10:59:48;9.30;1.00
11091;DHT22;5599;52.210;21.046;2023-01-13T11:02:25;9.30;1.00
11091;DHT22;5599;52.210;21.046;2023-01-13T11:05:08;9.30;99.90
11091;DHT22;5599;52.210;21.046;2023-01-13T11:07:40;9.40;99.90
11091;DHT22;5599;52.210;21.046;2023-01-13T11:10:18;9.40;99.90
11091;DHT22;5599;52.210;21.046;2023-01-13T11:12:57;9.40;13.20
11091;DHT22;5599;52.210;21.046;2023-01-13T11:15:37;9.40;99.90
11091;DHT22;5599;52.210;21.046;2023-01-13T11:18:15;9.50;99.90
11091;DHT22;5599;52.210;21.046;2023-01-13T11:20:48;9.50;4.30
11091;DHT22;5599;52.210;21.046;2023-01-13T11:23:20;9.50;99.90
11091;DHT22;5599;52.210;21.046;2023-01-13T11:25:57;9.50;99.90
11091;DHT22;5599;52.210;21.046;2023-01-13T11:28:38;9.50;99.90
11091;DHT22;5599;52.210;21.046;2023-01-13T11:31:17;9.50;1.00
11091;DHT22;5599;52.210;21.046;2023-01-13T11:33:51;9.60;1.00
11091;DHT22;5599;52.210;21.046;2023-01-13T11:36:24;9.60;99.90
11091;DHT22;5599;52.210;21.046;2023-01-13T11:39:02;9.60;99.90
11091;DHT22;5599;52.210;21.046;2023-01-13T11:41:42;9.70;1.00
11091;DHT22;5599;52.210;21.046;2023-01-13T11:44:17;9.70;99.90
11091;DHT22;5599;52.210;21.046;2023-01-13T11:46:49;9.70;28.50
11091;DHT22;5599;52.210;21.046;2023-01-13T11:49:24;9.70;49.50
11091;DHT22;5599;52.210;21.046;2023-01-13T11:51:58;9.70;1.00
11091;DHT22;5599;52.210;21.046;2023-01-13T11:54:47;9.70;99.90
11091;DHT22;5599;52.210;21.046;2023-01-13T12:00:38;9.80;99.90
11091;DHT22;5599;52.210;21.046;2023-01-13T12:03:21;9.80;99.90
11091;DHT22;5599;52.210;21.046;2023-01-13T12:06:07;9.80;99.90
11091;DHT22;5599;52.210;21.046;2023-01-13T12:11:53;9.80;99.90
11091;DHT22;5599;52.210;21.046;2023-01-13T12:17:41;9.80;1.00
11091;DHT22;5599;52.210;21.046;2023-01-13T12:20:22;9.90;99.90
11091;DHT22;5599;52.210;21.046;2023-01-13T12:22:58;9.90;99.90
11091;DHT22;5599;52.210;21.046;2023-01-13T12:25:33;9.80;99.90
11091;DHT22;5599;52.210;21.046;2023-01-13T12:28:12;9.80;1.00
11091;DHT22;5599;52.210;21.046;2023-01-13T12:30:46;9.80;1.00
11091;DHT22;5599;52.210;21.046;2023-01-13T12:33:24;9.80;1.00
11091;DHT22;5599;52.210;21.046;2023-01-13T12:36:00;9.80;99.90
11091;DHT22;5599;52.210;21.046;2023-01-13T12:38:36;9.80;99.90
11091;DHT22;5599;52.210;21.046;2023-01-13T12:41:13;9.80;99.90
11091;DHT22;5599;52.210;21.046;2023-01-13T12:43:47;9.90;1.00
11091;DHT22;5599;52.210;21.046;2023-01-13T12:46:49;9.90;1.00
11091;DHT22;5599;52.210;21.046;2023-01-13T12:49:24;9.90;1.00
11091;DHT22;5599;52.210;21.046;2023-01-13T12:52:19;9.80;1.00
11091;DHT22;5599;52.210;21.046;2023-01-13T12:55:12;9.90;94.40
11091;DHT22;5599;52.210;21.046;2023-01-13T12:57:55;10.00;1.00
11091;DHT22;5599;52.210;21.046;2023-01-13T13:00:32;10.10;99.90
11091;DHT22;5599;52.210;21.046;2023-01-13T13:03:28;10.00;99.90
11091;DHT22;5599;52.210;21.046;2023-01-13T13:06:01;10.00;1.00
11091;DHT22;5599;52.210;21.046;2023-01-13T13:08:58;10.00;1.00
11091;DHT22;5599;52.210;21.046;2023-01-13T13:11:50;10.00;99.90
11091;DHT22;5599;52.210;21.046;2023-01-13T13:14:59;10.00;1.00
11091;DHT22;5599;52.210;21.046;2023-01-13T13:17:44;9.90;92.40
11091;DHT22;5599;52.210;21.046;2023-01-13T13:21:02;10.00;1.00
11091;DHT22;5599;52.210;21.046;2023-01-13T13:26:35;10.10;99.90
11091;DHT22;5599;52.210;21.046;2023-01-13T13:29:29;10.10;1.00
11091;DHT22;5599;52.210;21.046;2023-01-13T13:32:19;10.10;1.00
11091;DHT22;5599;52.210;21.046;2023-01-13T13:34:58;10.10;1.00
11091;DHT22;5599;52.210;21.046;2023-01-13T13:37:45;10.20;99.90
11091;DHT22;5599;52.210;21.046;2023-01-13T13:40:52;10.30;45.30
11091;DHT22;5599;52.210;21.046;2023-01-13T13:43:42;10.30;1.00
11091;DHT22;5599;52.210;21.046;2023-01-13T13:46:31;10.20;1.00
11091;DHT22;5599;52.210;21.046;2023-01-13T13:49:17;10.20;1.00
11091;DHT22;5599;52.210;21.046;2023-01-13T13:51:53;10.10;1.00
11091;DHT22;5599;52.210;21.046;2023-01-13T13:54:26;10.20;99.90
11091;DHT22;5599;52.210;21.046;2023-01-13T13:56:56;10.20;15.80
11091;DHT22;5599;52.210;21.046;2023-01-13T13:59:28;10.20;99.90
11091;DHT22;5599;52.210;21.046;2023-01-13T14:02:00;10.20;1.00
11091;DHT22;5599;52.210;21.046;2023-01-13T14:04:33;10.40;1.00
11091;DHT22;5599;52.210;21.046;2023-01-13T14:07:14;10.30;1.00
11091;DHT22;5599;52.210;21.046;2023-01-13T14:09:46;10.30;89.60
11091;DHT22;5599;52.210;21.046;2023-01-13T14:12:18;10.20;16.70
11091;DHT22;5599;52.210;21.046;2023-01-13T14:14:49;10.20;1.00
11091;DHT22;5599;52.210;21.046;2023-01-13T14:17:23;10.20;1.00
11091;DHT22;5599;52.210;21.046;2023-01-13T14:20:02;10.20;99.90
11091;DHT22;5599;52.210;21.046;2023-01-13T14:22:33;10.20;99.90
11091;DHT22;5599;52.210;21.046;2023-01-13T14:25:30;10.30;61.70
11091;DHT22;5599;52.210;21.046;2023-01-13T14:28:13;10.20;77.50
11091;DHT22;5599;52.210;21.046;2023-01-13T14:30:56;10.20;1.00
11091;DHT22;5599;52.210;21.046;2023-01-13T14:33:32;10.00;1.00
11091;DHT22;5599;52.210;21.046;2023-01-13T14:36:14;10.00;1.00
11091;DHT22;5599;52.210;21.046;2023-01-13T14:38:45;10.10;91.60
11091;DHT22;5599;52.210;21.046;2023-01-13T14:41:18;10.10;1.00
11091;DHT22;5599;52.210;21.046;2023-01-13T14:43:50;10.20;99.90
11091;DHT22;5599;52.210;21.046;2023-01-13T14:46:23;10.20;99.90
11091;DHT22;5599;52.210;21.046;2023-01-13T14:48:59;10.10;1.00
11091;DHT22;5599;52.210;21.046;2023-01-13T14:51:29;10.00;99.90
11091;DHT22;5599;52.210;21.046;2023-01-13T14:53:59;10.10;99.90
11091;DHT22;5599;52.210;21.046;2023-01-13T14:56:50;10.00;1.00
11091;DHT22;5599;52.210;21.046;2023-01-13T14:59:42;10.00;1.00
11091;DHT22;5599;52.210;21.046;2023-01-13T15:02:48;10.00;99.90
11091;DHT22;5599;52.210;21.046;2023-01-13T15:05:36;10.00;99.90
11091;DHT22;5599;52.210;21.046;2023-01-13T15:11:16;10.10;1.00
11091;DHT22;5599;52.210;21.046;2023-01-13T15:13:56;10.10;99.90
11091;DHT22;5599;52.210;21.046;2023-01-13T15:16:28;10.10;1.00
11091;DHT22;5599;52.210;21.046;2023-01-13T15:19:03;10.10;99.90
11091;DHT22;5599;52.210;21.046;2023-01-13T15:21:33;10.20;99.90
11091;DHT22;5599;52.210;21.046;2023-01-13T15:24:06;10.20;4.90
11091;DHT22;5599;52.210;21.046;2023-01-13T15:26:36;10.20;99.90
11091;DHT22;5599;52.210;21.046;2023-01-13T15:29:09;10.20;99.90
11091;DHT22;5599;52.210;21.046;2023-01-13T15:31:42;10.20;99.90
11091;DHT22;5599;52.210;21.046;2023-01-13T15:34:13;10.10;1.00
11091;DHT22;5599;52.210;21.046;2023-01-13T15:36:43;10.10;1.00
11091;DHT22;5599;52.210;21.046;2023-01-13T15:39:12;10.20;99.90
11091;DHT22;5599;52.210;21.046;2023-01-13T15:41:42;10.20;99.90
11091;DHT22;5599;52.210;21.046;2023-01-13T15:44:29;10.20;1.00
11091;DHT22;5599;52.210;21.046;2023-01-13T15:47:15;10.20;1.00
11091;DHT22;5599;52.210;21.046;2023-01-13T15:49:46;10.20;1.00
11091;DHT22;5599;52.210;21.046;2023-01-13T15:52:18;10.20;3.70
11091;DHT22;5599;52.210;21.046;2023-01-13T15:54:48;10.20;99.90
11091;DHT22;5599;52.210;21.046;2023-01-13T15:57:21;10.10;99.90
11091;DHT22;5599;52.210;21.046;2023-01-13T15:59:53;10.10;1.00
11091;DHT22;5599;52.210;21.046;2023-01-13T16:02:23;10.10;99.90
11091;DHT22;5599;52.210;21.046;2023-01-13T16:04:54;10.20;1.00
11091;DHT22;5599;52.210;21.046;2023-01-13T16:07:29;10.20;99.90
11091;DHT22;5599;52.210;21.046;2023-01-13T16:09:58;10.10;99.90
11091;DHT22;5599;52.210;21.046;2023-01-13T16:12:28;10.10;1.00
11091;DHT22;5599;52.210;21.046;2023-01-13T16:14:58;10.10;99.90
11091;DHT22;5599;52.210;21.046;2023-01-13T16:17:28;10.10;1.00
11091;DHT22;5599;52.210;21.046;2023-01-13T16:19:59;10.10;99.90
11091;DHT22;5599;52.210;21.046;2023-01-13T16:22:29;10.10;1.00
11091;DHT22;5599;52.210;21.046;2023-01-13T16:24:58;10.20;99.90
11091;DHT22;5599;52.210;21.046;2023-01-13T16:27:27;10.00;1.00
11091;DHT22;5599;52.210;21.046;2023-01-13T16:29:57;10.20;1.00
11091;DHT22;5599;52.210;21.046;2023-01-13T16:32:26;10.10;99.90
11091;DHT22;5599;52.210;21.046;2023-01-13T16:34:56;10.00;1.00
11091;DHT22;5599;52.210;21.046;2023-01-13T16:37:27;10.10;1.00
11091;DHT22;5599;52.210;21.046;2023-01-13T16:39:56;10.10;1.00
11091;DHT22;5599;52.210;21.046;2023-01-13T16:42:27;10.10;99.90
11091;DHT22;5599;52.210;21.046;2023-01-13T16:44:56;10.10;1.00
11091;DHT22;5599;52.210;21.046;2023-01-13T16:47:34;10.10;99.90
11091;DHT22;5599;52.210;21.046;2023-01-13T16:50:04;10.10;99.90
11091;DHT22;5599;52.210;21.046;2023-01-13T16:52:35;10.10;1.00
11091;DHT22;5599;52.210;21.046;2023-01-13T16:55:05;10.10;99.90
11091;DHT22;5599;52.210;21.046;2023-01-13T16:57:34;10.10;99.90
11091;DHT22;5599;52.210;21.046;2023-01-13T17:00:04;10.10;1.00
11091;DHT22;5599;52.210;21.046;2023-01-13T17:02:34;10.10;99.90